Time;durP1;ratioP1;P1;durP2;ratioP2;P2;SDS_P1;SDS_P2;PMS_P1;PMS_P2;Temp;Humidity;BMP_temperature;BMP_pressure;BME280_temperature;BME280_humidity;BME280_pressure;Samples;Min_cycle;Max_cycle;Signal;HPM_P1;HPM_P2
2022/12/19 00:01:21;;;;;;;1.60;1.30;;;;;;;16.56;50.25;98311.16;5013554;28;20022;-28
2022/12/19 00:03:49;;;;;;;2.03;1.05;;;;;;;16.56;50.00;98313.88;5008696;28;20468;-28
2022/12/19 00:06:17;;;;;;;1.65;1.00;;;;;;;16.59;49.77;98312.25;5013633;28;20025;-28
2022/12/19 00:08:47;;;;;;;1.13;1.00;;;;;;;16.63;49.50;98311.03;5013596;28;20061;-28
2022/12/19 00:11:14;;;;;;;1.85;1.23;;;;;;;16.57;49.52;98309.19;5013533;28;20048;-26
2022/12/19 00:13:40;;;;;;;1.70;1.10;;;;;;;16.50;49.79;98305.38;5013618;28;20033;-26
2022/12/19 00:16:10;;;;;;;2.08;0.98;;;;;;;16.51;49.98;98301.44;5013176;28;20093;-26
2022/12/19 00:18:37;;;;;;;2.20;1.17;;;;;;;16.55;50.09;98298.66;5013344;28;20385;-26
2022/12/19 00:21:04;;;;;;;1.92;1.20;;;;;;;16.56;49.80;98299.41;5013451;28;20045;-26
2022/12/19 00:23:32;;;;;;;2.08;1.00;;;;;;;16.57;49.61;98290.75;5013046;28;20049;-26
2022/12/19 00:26:13;;;;;;;1.95;1.00;;;;;;;16.54;49.61;98291.63;5013614;28;20022;-26
2022/12/19 00:28:41;;;;;;;1.20;1.00;;;;;;;16.54;49.45;98280.66;5013351;28;20473;-26
2022/12/19 00:31:07;;;;;;;1.83;1.00;;;;;;;16.51;49.46;98279.53;5012829;28;20046;-26
2022/12/19 00:33:32;;;;;;;1.13;0.95;;;;;;;16.48;49.17;98285.06;5008179;28;20038;-26
2022/12/19 00:36:22;;;;;;;2.53;1.00;;;;;;;16.52;49.57;98288.53;5005400;28;20037;-26
2022/12/19 00:38:50;;;;;;;2.28;1.23;;;;;;;16.45;49.08;98283.16;5013136;28;20022;-26
2022/12/19 00:41:35;;;;;;;1.95;1.20;;;;;;;16.52;49.21;98283.03;5013095;28;20026;-26
2022/12/19 00:44:06;;;;;;;5.68;1.30;;;;;;;16.45;49.32;98281.19;5013220;28;20030;-26
2022/12/19 00:46:33;;;;;;;3.30;1.35;;;;;;;16.51;49.10;98281.50;5012978;28;20029;-26
2022/12/19 00:49:00;;;;;;;1.30;0.95;;;;;;;16.52;49.08;98278.34;5001298;28;20037;-26
2022/12/19 00:51:28;;;;;;;1.63;1.20;;;;;;;16.51;49.06;98271.31;5012550;28;20493;-26
2022/12/19 00:53:55;;;;;;;2.55;1.20;;;;;;;16.49;49.32;98270.19;5013274;28;20441;-26
2022/12/19 00:56:30;;;;;;;2.15;1.30;;;;;;;16.45;49.15;98269.47;5013027;28;20026;-26
2022/12/19 00:58:55;;;;;;;1.90;1.10;;;;;;;16.39;49.07;98280.16;5014196;28;20109;-26
2022/12/19 01:01:24;;;;;;;1.80;1.38;;;;;;;16.47;49.21;98276.09;5014711;28;20113;-26
2022/12/19 01:03:50;;;;;;;2.35;1.40;;;;;;;16.41;49.40;98277.00;5015934;28;20126;-26
2022/12/19 01:06:16;;;;;;;1.65;1.20;;;;;;;16.43;49.13;98280.09;4999035;28;20053;-26
2022/12/19 01:08:42;;;;;;;4.50;1.52;;;;;;;16.46;48.89;98288.22;5016428;28;20470;-26
2022/12/19 01:11:09;;;;;;;3.22;1.48;;;;;;;16.41;49.02;98287.97;5016578;28;20018;-26
2022/12/19 01:13:36;;;;;;;1.90;1.45;;;;;;;16.41;48.85;98294.22;5016223;28;20100;-26
2022/12/19 01:16:10;;;;;;;2.53;1.40;;;;;;;16.39;48.96;98293.84;5016036;28;20017;-26
2022/12/19 01:18:36;;;;;;;2.60;1.45;;;;;;;16.39;48.86;98293.84;5016337;28;20069;-26
2022/12/19 01:21:05;;;;;;;3.83;1.65;;;;;;;16.45;48.93;98291.38;5016221;28;20029;-27
2022/12/19 01:23:31;;;;;;;2.05;1.63;;;;;;;16.41;49.18;98298.91;5016218;28;20026;-27
2022/12/19 01:25:57;;;;;;;1.75;1.27;;;;;;;16.39;48.83;98295.81;5016022;28;20029;-26
2022/12/19 01:28:23;;;;;;;1.65;1.20;;;;;;;16.41;48.94;98299.69;5016024;28;20037;-26
2022/12/19 01:30:49;;;;;;;2.50;1.52;;;;;;;16.42;49.05;98292.25;5018431;28;20049;-26
2022/12/19 01:33:17;;;;;;;1.73;1.25;;;;;;;16.39;48.52;98295.81;5015629;28;20026;-26
2022/12/19 01:35:44;;;;;;;2.63;1.38;;;;;;;16.37;48.98;98293.50;5016214;28;20026;-26
2022/12/19 01:38:15;;;;;;;2.30;1.80;;;;;;;16.35;49.11;98295.09;5015767;28;20014;-26
2022/12/19 01:40:50;;;;;;;1.83;1.30;;;;;;;16.34;49.02;98299.03;5015924;28;20040;-26
2022/12/19 01:43:16;;;;;;;2.75;1.58;;;;;;;16.36;48.81;98297.41;5015993;28;20029;-26
2022/12/19 01:45:42;;;;;;;2.42;1.55;;;;;;;16.36;48.90;98302.91;5016042;28;20080;-26
2022/12/19 01:48:23;;;;;;;2.75;1.58;;;;;;;16.40;48.62;98302.84;5015754;28;20462;-26
2022/12/19 01:50:54;;;;;;;2.00;1.80;;;;;;;16.40;48.91;98309.09;5016012;28;20151;-26
2022/12/19 01:53:23;;;;;;;2.50;1.80;;;;;;;16.38;48.90;98302.47;4998012;28;20025;-26
2022/12/19 01:55:49;;;;;;;2.05;1.48;;;;;;;16.37;48.75;98306.41;5015576;28;20041;-26
2022/12/19 01:58:15;;;;;;;3.03;1.60;;;;;;;16.42;48.73;98297.72;5015857;28;20025;-26
2022/12/19 02:00:43;;;;;;;3.13;1.60;;;;;;;16.41;48.12;98296.16;5015297;28;20041;-26
2022/12/19 02:03:19;;;;;;;1.88;1.30;;;;;;;16.42;48.54;98298.50;5015661;28;20045;-26
2022/12/19 02:05:45;;;;;;;1.73;1.27;;;;;;;16.45;48.28;98288.63;5015527;28;20105;-26
2022/12/19 02:08:11;;;;;;;3.30;1.27;;;;;;;16.38;48.56;98291.53;5015387;28;20025;-26
2022/12/19 02:10:37;;;;;;;2.38;1.63;;;;;;;16.39;48.59;98296.59;5015487;28;20449;-26
2022/12/19 02:13:02;;;;;;;2.90;1.50;;;;;;;16.35;48.34;98284.16;5015598;28;20033;-26
2022/12/19 02:15:36;;;;;;;2.13;1.30;;;;;;;16.37;48.63;98285.28;5015056;28;20101;-26
2022/12/19 02:18:22;;;;;;;2.22;1.20;;;;;;;16.34;48.03;98282.59;5015433;28;20033;-26
2022/12/19 02:21:18;;;;;;;2.80;1.23;;;;;;;16.34;48.44;98279.84;5015107;28;20049;-26
2022/12/19 02:24:13;;;;;;;1.88;0.82;;;;;;;16.32;47.82;98282.28;4997688;28;20034;-26
2022/12/19 02:27:00;;;;;;;1.90;1.30;;;;;;;16.27;48.30;98274.53;5015254;28;20105;-26
2022/12/19 02:30:03;;;;;;;1.88;1.40;;;;;;;16.31;47.77;98278.75;5015072;28;20030;-26
2022/12/19 02:32:53;;;;;;;2.00;1.30;;;;;;;16.34;47.95;98272.41;5015253;28;20041;-26
2022/12/19 02:35:43;;;;;;;1.80;1.23;;;;;;;16.31;47.81;98270.53;5014840;28;20109;-26
2022/12/19 02:38:30;;;;;;;2.05;1.30;;;;;;;16.31;47.77;98283.47;5014761;28;20026;-26
2022/12/19 02:41:03;;;;;;;2.35;1.40;;;;;;;16.32;48.20;98279.53;5014769;28;20029;-26
2022/12/19 02:43:31;;;;;;;2.08;1.23;;;;;;;16.26;47.89;98264.75;5014860;28;20030;-26
2022/12/19 02:45:58;;;;;;;2.75;1.40;;;;;;;16.25;47.96;98274.94;5014760;28;20124;-26
2022/12/19 02:48:24;;;;;;;2.38;1.30;;;;;;;16.30;47.96;98270.97;5014754;28;20462;-26
2022/12/19 02:50:50;;;;;;;1.77;1.17;;;;;;;16.25;47.92;98279.66;4997212;28;20030;-26
2022/12/19 02:53:16;;;;;;;2.38;1.08;;;;;;;16.21;47.70;98289.88;5014626;28;20061;-26
2022/12/19 02:56:03;;;;;;;1.73;1.00;;;;;;;16.16;48.08;98289.19;5014794;28;20052;-26
2022/12/19 02:58:31;;;;;;;2.22;1.17;;;;;;;16.17;47.78;98281.75;5014759;28;20033;-26
2022/12/19 03:01:13;;;;;;;2.35;1.30;;;;;;;16.20;47.22;98285.59;5001557;28;20033;-26
2022/12/19 03:04:11;;;;;;;1.92;1.17;;;;;;;16.24;47.73;98287.09;5003561;28;20476;-26
2022/12/19 03:06:45;;;;;;;2.58;1.40;;;;;;;16.17;47.66;98288.00;5014515;28;20103;-26
2022/12/19 03:09:35;;;;;;;1.65;1.08;;;;;;;16.17;47.75;98290.72;5014204;28;20093;-26
2022/12/19 03:12:11;;;;;;;2.60;1.40;;;;;;;16.18;47.86;98296.97;5013720;28;20034;-26
2022/12/19 03:14:36;;;;;;;2.28;1.00;;;;;;;16.24;47.52;98300.00;5014284;28;20386;-26
2022/12/19 03:17:06;;;;;;;2.45;0.98;;;;;;;16.20;47.71;98296.53;5014076;28;20026;-26
2022/12/19 03:19:35;;;;;;;1.70;1.05;;;;;;;16.23;47.40;98291.00;4996246;28;20018;-26
2022/12/19 03:22:00;;;;;;;1.77;0.93;;;;;;;16.24;47.38;98300.00;5013729;28;20032;-26
2022/12/19 03:24:26;;;;;;;1.55;1.00;;;;;;;16.15;47.88;98286.84;5014312;28;20029;-26
2022/12/19 03:26:57;;;;;;;1.80;1.00;;;;;;;16.10;47.50;98285.38;5014121;28;20025;-26
2022/12/19 03:29:34;;;;;;;2.13;1.15;;;;;;;16.13;47.33;98287.28;5003256;28;20097;-26
2022/12/19 03:32:04;;;;;;;3.72;1.20;;;;;;;16.15;47.58;98287.63;5015779;28;20108;-26
2022/12/19 03:34:46;;;;;;;1.48;0.77;;;;;;;16.14;47.48;98293.53;5014410;28;20026;-26
2022/12/19 03:37:16;;;;;;;1.77;0.82;;;;;;;16.09;47.73;98299.47;5002863;28;20383;-26
2022/12/19 03:39:46;;;;;;;1.20;0.90;;;;;;;16.13;47.15;98292.75;5014215;28;20622;-26
2022/12/19 03:45:00;;;;;;;1.27;0.90;;;;;;;16.10;47.51;98276.38;5000846;28;20110;-26
2022/12/19 03:47:47;;;;;;;1.38;0.90;;;;;;;16.08;46.96;98278.75;4996431;28;20128;-26
2022/12/19 03:50:14;;;;;;;1.10;0.80;;;;;;;16.06;47.24;98276.47;5013993;28;20021;-26
2022/12/19 03:52:55;;;;;;;2.33;0.90;;;;;;;16.05;47.21;98280.38;5012974;28;20032;-26
2022/12/19 03:56:05;;;;;;;1.80;1.00;;;;;;;16.05;47.13;98283.13;5013685;28;20022;-26
2022/12/19 03:58:35;;;;;;;0.93;0.70;;;;;;;16.05;46.83;98288.59;4977834;28;20069;-27
2022/12/19 04:01:03;;;;;;;2.08;0.88;;;;;;;16.08;47.28;98282.28;5012141;28;20021;-26
2022/12/19 04:03:30;;;;;;;3.58;1.58;;;;;;;16.11;46.70;98283.41;5013650;28;20026;-26
2022/12/19 04:05:59;;;;;;;2.65;1.30;;;;;;;16.09;47.29;98281.09;5013426;28;20022;-26
2022/12/19 04:08:26;;;;;;;2.80;1.30;;;;;;;16.06;46.79;98284.69;5013404;28;20026;-26
2022/12/19 04:11:02;;;;;;;2.63;1.33;;;;;;;16.03;47.01;98285.50;5013353;28;20026;-26
2022/12/19 04:13:42;;;;;;;2.47;1.02;;;;;;;16.08;46.97;98293.22;5013798;28;20018;-26
2022/12/19 04:16:14;;;;;;;1.63;0.90;;;;;;;16.06;46.92;98295.63;5002516;28;20359;-26
2022/12/19 04:18:45;;;;;;;2.53;1.00;;;;;;;16.02;46.42;98289.44;5013599;28;20429;-26
2022/12/19 04:21:23;;;;;;;2.30;0.98;;;;;;;16.03;46.65;98301.91;5013505;28;20466;-26
2022/12/19 04:23:55;;;;;;;2.65;0.95;;;;;;;16.06;46.53;98303.06;5013629;28;20458;-26
2022/12/19 04:26:23;;;;;;;2.50;0.80;;;;;;;16.00;46.82;98297.28;4996169;28;20032;-26
2022/12/19 04:28:54;;;;;;;2.85;1.00;;;;;;;16.03;46.48;98299.19;4995404;28;20072;-26
2022/12/19 04:31:20;;;;;;;1.30;0.90;;;;;;;16.00;46.23;98300.00;4996149;28;20049;-26
2022/12/19 04:33:46;;;;;;;1.77;0.82;;;;;;;15.98;46.39;98298.88;5017360;28;20546;-26
2022/12/19 04:36:11;;;;;;;1.88;1.00;;;;;;;15.99;46.51;98293.00;4999542;28;20117;-26
2022/12/19 04:38:37;;;;;;;3.42;1.00;;;;;;;15.99;46.17;98295.72;5017279;28;20022;-26
2022/12/19 04:41:03;;;;;;;1.45;0.80;;;;;;;15.98;46.43;98296.91;4999570;28;20029;-26
2022/12/19 04:43:28;;;;;;;2.13;0.90;;;;;;;15.95;46.25;98286.78;5017292;28;20033;-26
2022/12/19 04:45:54;;;;;;;2.42;1.10;;;;;;;15.90;46.09;98297.47;4999067;28;20026;-26
2022/12/19 04:48:19;;;;;;;1.92;0.90;;;;;;;15.91;46.36;98291.56;5016964;28;20014;-26
2022/12/19 04:50:45;;;;;;;2.08;0.77;;;;;;;15.85;46.05;98295.97;4999419;28;20473;-26
2022/12/19 04:53:10;;;;;;;1.60;0.68;;;;;;;15.95;46.68;98300.47;5017019;28;20489;-26
2022/12/19 04:55:36;;;;;;;2.17;1.00;;;;;;;15.85;46.63;98295.97;4999409;28;20228;-26
2022/12/19 04:58:04;;;;;;;2.22;0.90;;;;;;;15.92;46.50;98295.09;5016723;28;20017;-26
2022/12/19 05:00:29;;;;;;;1.30;0.75;;;;;;;15.88;46.67;98297.09;5016953;28;20029;-26
2022/12/19 05:02:54;;;;;;;2.22;0.70;;;;;;;15.88;46.11;98297.88;5016535;28;20018;-26
2022/12/19 05:05:20;;;;;;;1.85;0.95;;;;;;;15.94;46.59;98298.97;5016733;28;20025;-26
2022/12/19 05:07:45;;;;;;;2.25;0.80;;;;;;;15.92;46.68;98301.34;5016525;28;20024;-26
2022/12/19 05:10:11;;;;;;;2.15;0.80;;;;;;;15.87;45.99;98301.03;5016769;28;20501;-26
2022/12/19 05:12:38;;;;;;;3.08;0.73;;;;;;;15.95;46.50;98308.69;5022867;28;20050;-26
2022/12/19 05:15:04;;;;;;;1.30;0.70;;;;;;;15.92;46.50;98301.34;5016608;28;20097;-26
2022/12/19 05:17:30;;;;;;;2.47;0.90;;;;;;;15.93;46.64;98305.63;5016099;28;20050;-26
2022/12/19 05:19:56;;;;;;;1.13;0.80;;;;;;;15.91;46.57;98305.25;5016455;28;20068;-26
2022/12/19 05:22:21;;;;;;;1.40;0.80;;;;;;;15.85;46.47;98306.91;5016312;28;20026;-26
2022/12/19 05:24:46;;;;;;;1.42;0.75;;;;;;;15.89;46.38;98301.38;5016298;28;20026;-26
2022/12/19 05:27:12;;;;;;;1.95;0.95;;;;;;;15.90;46.30;98313.88;5016364;28;20033;-26
2022/12/19 05:29:37;;;;;;;1.60;1.10;;;;;;;15.87;46.28;98315.47;5015949;28;20071;-26
2022/12/19 05:32:04;;;;;;;2.38;1.02;;;;;;;15.84;46.45;98307.31;5016234;28;20041;-26
2022/12/19 05:34:30;;;;;;;2.15;0.73;;;;;;;15.92;46.31;98308.75;5016293;28;20033;-26
2022/12/19 05:36:55;;;;;;;1.55;0.98;;;;;;;15.89;46.25;98317.78;5016072;28;20087;-26
2022/12/19 05:39:21;;;;;;;1.52;0.70;;;;;;;15.91;46.32;98308.00;5018415;28;20022;-26
2022/12/19 05:41:46;;;;;;;3.20;1.00;;;;;;;15.92;46.43;98311.50;5016081;28;20120;-26
2022/12/19 05:44:12;;;;;;;1.90;1.08;;;;;;;15.84;46.25;98310.06;5015069;28;20034;-26
2022/12/19 05:46:37;;;;;;;1.63;0.90;;;;;;;15.89;46.29;98307.63;5016001;28;20021;-26
2022/12/19 05:49:03;;;;;;;2.03;1.10;;;;;;;15.92;45.85;98304.06;5015899;28;20574;-26
2022/12/19 05:51:28;;;;;;;1.88;0.90;;;;;;;15.88;46.36;98306.06;5015294;28;20033;-26
2022/12/19 05:53:54;;;;;;;1.50;1.20;;;;;;;15.86;45.70;98292.03;5016069;28;20061;-26
2022/12/19 05:56:21;;;;;;;2.45;0.80;;;;;;;15.85;46.20;98306.91;5015735;28;20018;-26
2022/12/19 05:58:47;;;;;;;2.28;0.80;;;;;;;15.78;45.93;98301.56;5015419;28;20018;-26
2022/12/19 06:01:17;;;;;;;1.52;1.00;;;;;;;15.83;45.86;98309.28;5015761;28;20466;-26
2022/12/19 06:03:43;;;;;;;4.25;1.10;;;;;;;15.85;45.37;98308.88;5015504;28;20116;-26
2022/12/19 06:06:12;;;;;;;1.83;0.93;;;;;;;15.90;45.87;98314.66;5015373;28;20022;-26
2022/12/19 06:08:38;;;;;;;1.58;0.80;;;;;;;15.88;45.20;98306.06;5015480;28;20029;-26
2022/12/19 06:11:05;;;;;;;2.67;1.20;;;;;;;15.80;45.81;98319.09;5015478;28;20021;-26
2022/12/19 06:13:31;;;;;;;3.63;1.05;;;;;;;15.84;46.08;98319.03;5015346;28;20021;-26
2022/12/19 06:16:02;;;;;;;3.97;1.50;;;;;;;15.75;45.49;98314.09;5015164;28;20110;-26
2022/12/19 06:18:30;;;;;;;2.22;1.50;;;;;;;15.68;45.90;98300.53;5015296;28;20030;-26
2022/12/19 06:21:06;;;;;;;1.83;1.08;;;;;;;15.79;45.54;98314.81;5015411;28;20076;-28
2022/12/19 06:23:34;;;;;;;2.22;1.10;;;;;;;15.76;46.19;98317.59;5015307;28;20022;-28
2022/12/19 06:26:01;;;;;;;1.70;1.10;;;;;;;15.76;46.41;98321.13;5015111;28;20029;-28
2022/12/19 06:28:28;;;;;;;3.33;1.60;;;;;;;15.75;46.28;98313.31;5014962;28;20025;-28
2022/12/19 06:30:58;;;;;;;2.75;1.15;;;;;;;15.75;46.11;98314.09;5014964;28;20050;-28
2022/12/19 06:33:24;;;;;;;3.22;1.20;;;;;;;15.77;45.91;98311.72;5014675;28;20540;-28
2022/12/19 06:36:01;;;;;;;2.92;1.33;;;;;;;15.77;45.92;98311.72;5014953;28;20477;-28
2022/12/19 06:38:28;;;;;;;6.45;1.98;;;;;;;15.82;45.67;98304.25;5014979;28;20026;-28
2022/12/19 06:43:38;;;;;;;3.78;1.40;;;;;;;15.79;45.82;98314.06;5003395;28;20037;-28
2022/12/19 06:46:04;;;;;;;2.72;1.40;;;;;;;15.72;46.23;98312.19;5013504;28;20030;-28
2022/12/19 06:48:30;;;;;;;3.60;1.88;;;;;;;15.75;46.17;98302.38;5003506;28;20018;-28
2022/12/19 06:50:55;;;;;;;5.30;1.90;;;;;;;15.76;46.37;98314.88;5001549;28;20505;-28
2022/12/19 06:53:21;;;;;;;3.15;2.10;;;;;;;15.80;45.73;98321.06;5014836;28;20026;-28
2022/12/19 06:55:49;;;;;;;4.10;2.10;;;;;;;15.75;46.11;98318.78;5013523;28;20038;-28
2022/12/19 06:58:15;;;;;;;6.05;2.30;;;;;;;15.79;45.92;98323.03;5014611;28;20026;-28
2022/12/19 07:00:40;;;;;;;4.32;2.20;;;;;;;15.74;46.11;98311.78;5014572;28;20022;-28
2022/12/19 07:03:10;;;;;;;3.95;2.05;;;;;;;15.76;45.90;98314.88;5014539;28;20352;-28
2022/12/19 07:05:36;;;;;;;3.28;1.80;;;;;;;15.76;45.65;98325.81;5014272;28;20100;-28
2022/12/19 07:08:02;;;;;;;3.88;2.20;;;;;;;15.76;46.13;98318.38;5014432;28;20502;-28
2022/12/19 07:10:28;;;;;;;3.15;2.13;;;;;;;15.73;46.12;98321.16;5014169;28;20033;-28
2022/12/19 07:12:53;;;;;;;5.68;2.00;;;;;;;15.76;46.59;98323.06;5014441;28;20394;-28
2022/12/19 07:15:19;;;;;;;4.00;2.25;;;;;;;15.72;46.12;98319.63;5014287;28;20022;-28
2022/12/19 07:17:44;;;;;;;3.60;1.60;;;;;;;15.69;46.24;98318.50;5014597;28;20022;-28
2022/12/19 07:20:11;;;;;;;5.78;1.85;;;;;;;15.71;46.04;98327.03;5014106;28;20104;-28
2022/12/19 07:22:37;;;;;;;2.92;1.60;;;;;;;15.73;46.29;98334.84;5014230;28;20057;-28
2022/12/19 07:25:04;;;;;;;3.78;2.10;;;;;;;15.73;46.19;98326.63;5013844;28;20049;-28
2022/12/19 07:27:30;;;;;;;2.38;1.60;;;;;;;15.75;46.08;98327.78;4994812;28;20532;-28
2022/12/19 07:29:56;;;;;;;5.25;2.25;;;;;;;15.74;46.44;98333.66;4993762;28;20407;-28
2022/12/19 07:32:21;;;;;;;4.65;2.20;;;;;;;15.71;46.62;98334.47;4993939;28;20077;-28
2022/12/19 07:34:47;;;;;;;2.17;1.83;;;;;;;15.71;46.68;98342.69;4998824;28;20033;-28
2022/12/19 07:37:12;;;;;;;2.47;1.63;;;;;;;15.77;46.54;98341.03;5013991;28;20081;-28
2022/12/19 07:39:38;;;;;;;2.72;2.00;;;;;;;15.75;46.57;98340.69;5010848;28;20826;-28
2022/12/19 07:42:04;;;;;;;2.20;1.77;;;;;;;15.76;46.38;98343.00;5011542;28;20021;-28
2022/12/19 07:44:29;;;;;;;2.58;1.90;;;;;;;15.74;46.48;98344.59;5011713;28;20033;-28
2022/12/19 07:46:55;;;;;;;5.07;2.55;;;;;;;15.74;46.64;98345.38;5012222;28;20028;-28
2022/12/19 07:49:20;;;;;;;2.50;1.98;;;;;;;15.66;47.01;98346.69;5012182;28;20381;-29
2022/12/19 07:51:46;;;;;;;2.47;1.90;;;;;;;15.71;46.89;98345.41;5010878;28;20030;-28
2022/12/19 07:54:12;;;;;;;5.97;2.13;;;;;;;15.68;46.81;98351.75;5011105;28;20037;-28
2022/12/19 07:56:37;;;;;;;3.80;2.22;;;;;;;15.75;46.81;98346.94;5011101;28;20034;-28
2022/12/19 07:59:03;;;;;;;16.73;9.77;;;;;;;15.68;46.68;98351.75;5011249;28;20140;-28
2022/12/19 08:01:28;;;;;;;10.25;6.68;;;;;;;15.74;46.58;98350.06;5009991;28;20038;-28
2022/12/19 08:03:54;;;;;;;9.38;6.38;;;;;;;15.71;46.78;98359.09;5011241;28;20113;-28
2022/12/19 08:06:20;;;;;;;9.60;5.70;;;;;;;15.62;47.30;98361.59;5010841;28;20355;-28
2022/12/19 08:08:45;;;;;;;8.35;5.30;;;;;;;15.67;47.23;98358.41;5011335;28;20151;-28
2022/12/19 08:11:16;;;;;;;7.47;4.70;;;;;;;15.75;47.00;98357.09;5011439;28;20036;-28
2022/12/19 08:13:43;;;;;;;8.15;4.82;;;;;;;15.75;46.78;98362.56;4998533;28;20112;-28
2022/12/19 08:16:09;;;;;;;6.75;4.20;;;;;;;15.65;47.14;98364.28;5011215;28;20105;-28
2022/12/19 08:18:34;;;;;;;6.65;4.18;;;;;;;15.69;47.12;98369.69;5011315;28;20095;-28
2022/12/19 08:21:00;;;;;;;6.10;3.95;;;;;;;15.77;47.31;98376.59;5011270;28;20462;-28
2022/12/19 08:23:26;;;;;;;5.65;3.67;;;;;;;15.75;47.33;98373.50;5011278;28;20025;-28
2022/12/19 08:26:02;;;;;;;5.68;3.80;;;;;;;15.63;47.62;98371.34;5010875;28;20087;-28
2022/12/19 08:28:29;;;;;;;5.13;3.47;;;;;;;15.64;47.71;98378.34;4992961;28;20370;-28
2022/12/19 08:30:55;;;;;;;4.85;3.35;;;;;;;15.61;47.92;98376.44;5010679;28;20061;-28
2022/12/19 08:33:21;;;;;;;5.07;3.28;;;;;;;15.71;47.65;98375.50;5010805;28;20037;-28
2022/12/19 08:35:46;;;;;;;7.28;3.85;;;;;;;15.67;47.71;98383.00;5011188;28;20034;-28
2022/12/19 08:38:12;;;;;;;5.43;3.60;;;;;;;15.70;47.76;98379.47;5010703;28;20038;-28
2022/12/19 08:40:37;;;;;;;8.38;5.80;;;;;;;14.85;48.95;98377.75;5009223;28;20470;-28
2022/12/19 08:43:02;;;;;;;6.40;4.80;;;;;;;14.84;48.81;98381.66;5010525;28;20117;-27
2022/12/19 08:45:28;;;;;;;6.95;4.72;;;;;;;15.15;48.38;98377.81;5010965;28;20117;-27
2022/12/19 08:47:53;;;;;;;6.57;4.80;;;;;;;15.32;48.04;98374.09;5011180;28;20014;-27
2022/12/19 08:50:19;;;;;;;8.43;4.55;;;;;;;15.51;47.69;98380.84;5010563;28;20063;-27
2022/12/19 08:52:44;;;;;;;6.88;4.63;;;;;;;15.65;47.48;98382.66;5010687;28;20096;-27
2022/12/19 08:55:10;;;;;;;7.55;4.25;;;;;;;15.68;47.91;98382.59;5012476;28;20423;-27
2022/12/19 08:57:35;;;;;;;6.13;4.38;;;;;;;14.86;48.52;98382.03;5011627;28;20032;-29
2022/12/19 09:00:03;;;;;;;7.78;4.68;;;;;;;14.97;48.63;98371.75;5012616;28;20092;-27
2022/12/19 09:02:29;;;;;;;6.20;4.18;;;;;;;15.24;47.67;98388.22;5012008;28;20033;-27
2022/12/19 09:04:55;;;;;;;5.35;4.22;;;;;;;15.25;47.45;98381.59;5012647;28;20037;-27
2022/12/19 09:07:20;;;;;;;6.60;4.10;;;;;;;15.51;47.83;98388.28;5012624;28;20026;-27
2022/12/19 09:09:46;;;;;;;6.65;3.60;;;;;;;15.59;47.74;98387.78;5012204;28;20114;-27
2022/12/19 09:12:14;;;;;;;6.97;3.78;;;;;;;15.65;47.39;98382.66;5013008;28;20026;-27
2022/12/19 09:14:39;;;;;;;4.85;3.25;;;;;;;15.59;47.56;98389.75;5012891;28;20076;-27
2022/12/19 09:17:05;;;;;;;4.32;3.10;;;;;;;15.69;47.32;98392.34;5012743;28;20421;-27
2022/12/19 09:19:31;;;;;;;6.03;3.30;;;;;;;15.67;47.33;98393.94;5015328;28;20101;-27
2022/12/19 09:21:56;;;;;;;6.60;3.20;;;;;;;15.60;47.55;98394.03;5016261;28;20446;-27
2022/12/19 09:24:22;;;;;;;3.38;2.53;;;;;;;15.65;47.60;98404.53;5016425;28;20026;-27
2022/12/19 09:26:47;;;;;;;5.07;3.00;;;;;;;15.59;47.84;98395.22;4998744;28;20120;-27
2022/12/19 09:29:13;;;;;;;3.42;2.80;;;;;;;15.62;47.79;98397.91;5016286;28;20402;-27
2022/12/19 09:31:38;;;;;;;4.95;2.88;;;;;;;15.61;47.99;98401.84;5015766;28;20147;-27
2022/12/19 09:34:04;;;;;;;3.15;2.50;;;;;;;15.63;48.09;98399.47;5016250;28;20470;-27
2022/12/19 09:36:30;;;;;;;3.47;2.55;;;;;;;15.63;48.09;98398.69;5016037;28;20049;-27
2022/12/19 09:38:57;;;;;;;6.30;2.90;;;;;;;15.68;48.14;98398.25;5016174;28;20385;-27
2022/12/19 09:42:10;;;;;;;3.30;2.38;;;;;;;15.67;48.23;98393.94;5016048;28;20386;-27
2022/12/19 09:44:47;;;;;;;4.10;2.53;;;;;;;15.70;48.38;98387.66;5006809;28;20064;-27
2022/12/19 09:47:17;;;;;;;3.83;2.58;;;;;;;15.70;48.67;98384.94;5016023;28;20033;-27
2022/12/19 09:49:45;;;;;;;3.60;2.33;;;;;;;15.75;48.54;98384.44;5015758;28;20157;-27
2022/12/19 09:52:25;;;;;;;2.60;2.20;;;;;;;15.71;48.79;98383.72;5019242;28;20026;-27
2022/12/19 09:55:00;;;;;;;2.70;2.30;;;;;;;15.66;49.13;98371.28;5015437;28;20021;-27
2022/12/19 09:57:39;;;;;;;3.20;2.50;;;;;;;15.68;48.93;98379.88;5009956;28;20037;-27
2022/12/19 10:00:12;;;;;;;3.38;2.78;;;;;;;15.73;49.04;98378.59;5015689;28;20026;-27
2022/12/19 10:03:01;;;;;;;3.95;2.83;;;;;;;15.69;49.05;98375.94;5015503;28;20109;-27
2022/12/19 10:05:44;;;;;;;5.25;3.20;;;;;;;15.63;49.21;98382.28;5015822;28;20488;-27
2022/12/19 10:08:18;;;;;;;4.18;3.15;;;;;;;15.68;49.25;98373.63;5015293;28;20488;-27
2022/12/19 10:11:27;;;;;;;4.28;3.00;;;;;;;15.70;49.10;98361.06;5015732;28;20021;-27
2022/12/19 10:13:58;;;;;;;3.70;2.85;;;;;;;15.74;49.05;98367.25;5015428;28;20087;-27
2022/12/19 10:16:39;;;;;;;4.85;2.85;;;;;;;15.73;49.19;98371.19;4998087;28;20053;-27
2022/12/19 10:19:07;;;;;;;4.25;2.88;;;;;;;15.65;49.40;98369.75;5015183;28;20536;-27
2022/12/19 10:21:45;;;;;;;3.88;2.67;;;;;;;15.63;49.63;98365.88;5015288;28;20033;-27
2022/12/19 10:24:16;;;;;;;3.05;2.50;;;;;;;15.71;49.49;98370.03;5014926;28;20032;-27
2022/12/19 10:26:55;;;;;;;3.97;2.45;;;;;;;15.77;49.36;98358.22;5015148;28;20025;-27
2022/12/19 10:29:23;;;;;;;4.18;2.60;;;;;;;15.59;49.69;98368.66;5015227;28;20029;-27
2022/12/19 10:32:11;;;;;;;3.97;2.47;;;;;;;15.72;49.45;98360.66;5014880;28;20045;-27
2022/12/19 10:34:42;;;;;;;3.08;2.10;;;;;;;15.54;50.02;98357.38;5014852;28;20022;-27
2022/12/19 10:37:25;;;;;;;3.63;2.53;;;;;;;15.56;49.86;98352.31;5015153;28;20092;-27
2022/12/19 10:39:56;;;;;;;2.95;2.10;;;;;;;15.70;49.75;98352.09;5014910;28;20112;-27
2022/12/19 10:42:28;;;;;;;2.53;2.00;;;;;;;15.78;49.36;98350.81;4997494;28;20033;-27
2022/12/19 10:44:56;;;;;;;4.20;2.28;;;;;;;15.70;49.82;98343.91;5014998;28;20061;-27
2022/12/19 10:47:27;;;;;;;2.67;2.15;;;;;;;15.59;49.96;98338.56;5002528;28;20023;-27
2022/12/19 10:49:53;;;;;;;2.80;2.00;;;;;;;15.70;49.79;98344.66;5001870;28;20017;-27
2022/12/19 10:52:51;;;;;;;2.90;2.10;;;;;;;15.70;49.66;98349.38;5013887;28;20488;-27
2022/12/19 10:55:46;;;;;;;3.95;2.15;;;;;;;15.67;50.02;98340.03;5003910;28;20057;-27
2022/12/19 10:58:18;;;;;;;3.45;1.95;;;;;;;15.70;49.82;98339.19;5011071;28;20030;-27
2022/12/19 11:01:12;;;;;;;3.53;2.75;;;;;;;15.59;50.13;98332.31;5014528;28;20028;-27
2022/12/19 11:03:40;;;;;;;5.18;3.17;;;;;;;15.60;49.70;98322.94;5009552;28;20081;-27
2022/12/19 11:06:46;;;;;;;7.00;3.72;;;;;;;15.58;50.40;98333.53;5014247;28;20022;-27
2022/12/19 11:09:34;;;;;;;10.77;6.70;;;;;;;15.57;49.46;98330.03;4969098;28;20120;-27
2022/12/19 11:12:07;;;;;;;13.60;9.82;;;;;;;15.54;49.82;98325.34;5014408;28;20033;-27
2022/12/19 11:14:34;;;;;;;;;;;;;;;15.42;49.91;98329.41;4997368;28;20036;-27
2022/12/19 11:17:00;;;;;;;16.92;10.43;;;;;;;15.40;50.20;98320.06;5014053;28;19913;-27
2022/12/19 11:19:30;;;;;;;13.20;8.52;;;;;;;15.42;49.88;98325.91;5014205;28;20481;-27
2022/12/19 11:22:27;;;;;;;15.27;10.55;;;;;;;15.41;50.42;98316.16;5014062;28;20105;-27
2022/12/19 11:24:54;;;;;;;10.13;7.25;;;;;;;15.60;49.77;98331.13;5014285;28;20025;-27
2022/12/19 11:27:44;;;;;;;12.52;7.93;;;;;;;15.55;49.81;98326.16;5014419;28;20355;-27
2022/12/19 11:30:25;;;;;;;11.93;7.60;;;;;;;15.38;50.32;98323.22;4995150;28;20038;-27
2022/12/19 11:33:14;;;;;;;12.82;7.85;;;;;;;15.55;50.01;98315.22;5014116;28;20025;-27
2022/12/19 11:35:51;;;;;;;10.50;7.40;;;;;;;15.43;49.72;98317.28;5004320;28;20017;-27
2022/12/19 11:38:41;;;;;;;11.13;7.15;;;;;;;15.54;50.20;98319.88;4996557;28;20029;-27
2022/12/19 11:41:50;;;;;;;7.53;5.90;;;;;;;15.59;50.04;98322.16;5013415;28;20025;-27
2022/12/19 11:44:45;;;;;;;9.88;5.38;;;;;;;15.52;49.66;98316.78;5006569;28;20053;-27
2022/12/19 11:47:32;;;;;;;9.60;6.68;;;;;;;15.47;49.40;98309.03;5013976;28;20521;-27
2022/12/19 11:50:31;;;;;;;9.82;6.07;;;;;;;15.71;50.01;98312.59;5001937;28;20032;-27
2022/12/19 11:53:24;;;;;;;7.72;5.57;;;;;;;15.45;49.82;98303.97;4990547;28;20042;-27
2022/12/19 11:56:10;;;;;;;9.07;5.90;;;;;;;15.66;49.67;98304.88;5013180;28;20014;-27
2022/12/19 11:58:36;;;;;;;9.45;5.22;;;;;;;15.63;49.10;98302.97;5013360;28;20030;-27